Time;durP1;ratioP1;P1;durP2;ratioP2;P2;SDS_P1;SDS_P2;PMS_P1;PMS_P2;Temp;Humidity;BMP_temperature;BMP_pressure;BME280_temperature;BME280_humidity;BME280_pressure;Samples;Min_cycle;Max_cycle;Signal;HPM_P1;HPM_P2
2021/07/20 00:01:07;;;;;;;0.00;0.00;;;;;;;;;;5123199;28;20203;-71
2021/07/20 00:03:33;;;;;;;0.00;0.00;;;;;;;;;;5112329;28;20213;-72
2021/07/20 00:05:59;;;;;;;0.00;0.00;;;;;;;;;;5112803;28;20532;-72
2021/07/20 00:08:27;;;;;;;0.00;0.00;;;;;;;;;;5124552;28;20200;-72
2021/07/20 00:10:55;;;;;;;0.10;0.10;;;;;;;;;;5126219;28;20207;-72
2021/07/20 00:13:21;;;;;;;0.10;0.10;;;;;;;;;;5107394;28;20202;-72
2021/07/20 00:15:47;;;;;;;0.05;0.05;;;;;;;;;;5113702;28;20203;-72
2021/07/20 00:18:14;;;;;;;0.00;0.00;;;;;;;;;;5111057;28;20229;-72
2021/07/20 00:20:41;;;;;;;0.00;0.00;;;;;;;;;;5117543;28;20200;-72
2021/07/20 00:23:08;;;;;;;0.00;0.00;;;;;;;;;;5105279;28;20489;-72
2021/07/20 00:25:36;;;;;;;0.10;0.10;;;;;;;;;;5104736;28;20206;-71
2021/07/20 00:28:02;;;;;;;0.00;0.00;;;;;;;;;;5105156;28;20211;-72
2021/07/20 00:30:29;;;;;;;0.10;0.10;;;;;;;;;;5107867;28;20264;-72
2021/07/20 00:32:55;;;;;;;0.10;0.10;;;;;;;;;;5124300;28;20216;-72
2021/07/20 00:35:22;;;;;;;0.10;0.10;;;;;;;;;;5112071;28;20204;-72
2021/07/20 00:37:48;;;;;;;0.10;0.10;;;;;;;;;;5109385;28;20290;-72
2021/07/20 00:40:16;;;;;;;0.00;0.00;;;;;;;;;;5125180;28;20220;-72
2021/07/20 00:42:44;;;;;;;0.05;0.05;;;;;;;;;;5107645;28;20207;-73
2021/07/20 00:45:11;;;;;;;0.00;0.00;;;;;;;;;;5104690;28;20249;-72
2021/07/20 00:47:37;;;;;;;0.00;0.00;;;;;;;;;;5113910;28;20248;-72
2021/07/20 00:50:04;;;;;;;0.10;0.10;;;;;;;;;;5117220;28;20514;-73
2021/07/20 00:52:30;;;;;;;0.10;0.10;;;;;;;;;;5104930;28;20208;-71
2021/07/20 00:54:57;;;;;;;0.00;0.00;;;;;;;;;;5124706;27;20242;-72
2021/07/20 00:57:23;;;;;;;0.00;0.00;;;;;;;;;;5112478;27;20206;-72
2021/07/20 00:59:51;;;;;;;0.00;0.00;;;;;;;;;;5103808;28;20443;-72
2021/07/20 01:02:17;;;;;;;0.10;0.10;;;;;;;;;;5107662;28;20210;-71
2021/07/20 01:04:43;;;;;;;0.00;0.00;;;;;;;;;;5107836;28;20204;-72
2021/07/20 01:07:10;;;;;;;0.00;0.00;;;;;;;;;;5104417;28;20204;-73
2021/07/20 01:09:36;;;;;;;0.08;0.08;;;;;;;;;;5105458;28;20201;-73
2021/07/20 01:12:03;;;;;;;0.00;0.00;;;;;;;;;;5111215;28;20269;-72
2021/07/20 01:14:29;;;;;;;0.05;0.05;;;;;;;;;;5111484;28;20207;-73
2021/07/20 01:16:57;;;;;;;0.00;0.00;;;;;;;;;;5103826;28;20201;-73
2021/07/20 01:19:26;;;;;;;0.08;0.08;;;;;;;;;;5116719;28;20301;-72
2021/07/20 01:21:53;;;;;;;0.10;0.10;;;;;;;;;;5106263;28;20252;-72
2021/07/20 01:24:21;;;;;;;0.10;0.10;;;;;;;;;;5104143;28;20376;-72
2021/07/20 01:26:47;;;;;;;0.00;0.00;;;;;;;;;;5103673;28;20217;-72
2021/07/20 01:29:15;;;;;;;0.10;0.10;;;;;;;;;;5103958;28;20197;-72
2021/07/20 01:31:42;;;;;;;0.08;0.08;;;;;;;;;;5103943;28;20491;-72
2021/07/20 01:34:09;;;;;;;0.10;0.10;;;;;;;;;;5106850;28;20206;-71
2021/07/20 01:36:36;;;;;;;0.10;0.10;;;;;;;;;;5124434;28;20204;-73
2021/07/20 01:39:04;;;;;;;0.10;0.10;;;;;;;;;;5123232;28;20228;-72
2021/07/20 01:41:32;;;;;;;0.03;0.03;;;;;;;;;;5103649;28;20208;-72
2021/07/20 01:44:00;;;;;;;0.03;0.03;;;;;;;;;;5103712;28;20251;-73
2021/07/20 01:46:27;;;;;;;0.00;0.00;;;;;;;;;;5117830;28;20266;-71
2021/07/20 01:48:54;;;;;;;0.00;0.00;;;;;;;;;;5115826;28;20297;-72
2021/07/20 01:51:21;;;;;;;0.00;0.00;;;;;;;;;;5114265;28;20201;-72
2021/07/20 01:53:48;;;;;;;0.00;0.00;;;;;;;;;;5113482;28;20500;-72
2021/07/20 01:56:14;;;;;;;0.10;0.10;;;;;;;;;;5117489;28;20245;-73
2021/07/20 01:58:42;;;;;;;0.00;0.00;;;;;;;;;;5103533;28;20245;-73
2021/07/20 02:01:10;;;;;;;0.00;0.00;;;;;;;;;;5103831;28;20220;-72
2021/07/20 02:03:58;;;;;;;0.10;0.10;;;;;;;;;;5110832;28;20206;-73
2021/07/20 02:09:12;;;;;;;0.00;0.00;;;;;;;;;;5123661;28;20241;-73
2021/07/20 02:11:40;;;;;;;0.10;0.10;;;;;;;;;;5120106;28;20485;-72
2021/07/20 02:14:10;;;;;;;0.10;0.10;;;;;;;;;;5113146;28;20210;-73
2021/07/20 02:16:39;;;;;;;0.10;0.10;;;;;;;;;;5121682;28;20269;-72
2021/07/20 02:19:06;;;;;;;0.00;0.00;;;;;;;;;;5103088;28;20379;-73
2021/07/20 02:21:33;;;;;;;0.00;0.00;;;;;;;;;;5106115;28;20208;-71
2021/07/20 02:23:59;;;;;;;0.00;0.00;;;;;;;;;;5116045;28;20231;-73
2021/07/20 02:26:26;;;;;;;0.10;0.10;;;;;;;;;;5116338;28;20489;-72
2021/07/20 02:28:53;;;;;;;0.05;0.05;;;;;;;;;;5103739;28;20550;-72
2021/07/20 02:31:22;;;;;;;0.10;0.10;;;;;;;;;;5103058;28;20206;-73
2021/07/20 02:33:48;;;;;;;0.05;0.05;;;;;;;;;;5106627;28;20213;-72
2021/07/20 02:36:15;;;;;;;0.00;0.00;;;;;;;;;;5114276;28;20254;-72
2021/07/20 02:38:43;;;;;;;0.00;0.00;;;;;;;;;;5110716;28;20199;-72
2021/07/20 02:41:09;;;;;;;0.00;0.00;;;;;;;;;;5103015;28;20257;-72
2021/07/20 02:43:37;;;;;;;0.00;0.00;;;;;;;;;;5111764;28;20205;-72
2021/07/20 02:46:04;;;;;;;0.10;0.10;;;;;;;;;;5108851;28;20255;-71
2021/07/20 02:48:34;;;;;;;0.10;0.10;;;;;;;;;;5116113;28;20276;-72
2021/07/20 02:51:01;;;;;;;0.00;0.00;;;;;;;;;;5103264;28;20479;-73
2021/07/20 02:53:28;;;;;;;0.00;0.00;;;;;;;;;;5103612;28;20275;-72
2021/07/20 02:55:54;;;;;;;0.10;0.10;;;;;;;;;;5103120;28;20277;-74
2021/07/20 02:58:22;;;;;;;0.00;0.00;;;;;;;;;;5106729;28;20235;-72
2021/07/20 03:00:48;;;;;;;0.00;0.00;;;;;;;;;;5123014;28;20228;-72
2021/07/20 03:03:14;;;;;;;0.03;0.03;;;;;;;;;;5106958;28;20203;-72
2021/07/20 03:05:42;;;;;;;0.10;0.10;;;;;;;;;;5103485;28;20260;-73
2021/07/20 03:08:09;;;;;;;0.00;0.00;;;;;;;;;;5117589;28;20413;-71
2021/07/20 03:10:37;;;;;;;0.00;0.00;;;;;;;;;;5110499;28;20209;-74
2021/07/20 03:13:04;;;;;;;0.00;0.00;;;;;;;;;;5102525;28;20204;-73
2021/07/20 03:15:31;;;;;;;0.10;0.10;;;;;;;;;;5107410;28;20201;-72
2021/07/20 03:17:58;;;;;;;0.10;0.10;;;;;;;;;;5112386;28;20234;-72
2021/07/20 03:20:26;;;;;;;0.08;0.08;;;;;;;;;;5102685;28;20232;-72
2021/07/20 03:22:53;;;;;;;0.00;0.00;;;;;;;;;;5112217;28;20264;-73
2021/07/20 03:25:20;;;;;;;0.00;0.00;;;;;;;;;;5115790;28;20467;-72
2021/07/20 03:27:47;;;;;;;0.00;0.00;;;;;;;;;;5113652;28;20209;-72
2021/07/20 03:30:13;;;;;;;0.00;0.00;;;;;;;;;;5112587;28;20202;-72
2021/07/20 03:32:44;;;;;;;0.00;0.00;;;;;;;;;;5106021;28;20231;-72
2021/07/20 03:35:11;;;;;;;0.00;0.00;;;;;;;;;;5118854;28;20264;-72
2021/07/20 03:37:38;;;;;;;0.00;0.00;;;;;;;;;;5112127;28;20208;-72
2021/07/20 03:40:06;;;;;;;0.00;0.00;;;;;;;;;;5115799;28;20565;-72
2021/07/20 03:42:33;;;;;;;0.05;0.05;;;;;;;;;;5117013;28;20207;-73
2021/07/20 03:44:59;;;;;;;0.00;0.00;;;;;;;;;;5106021;28;20455;-72
2021/07/20 03:47:26;;;;;;;0.00;0.00;;;;;;;;;;5119774;28;20544;-71
2021/07/20 03:49:52;;;;;;;0.00;0.00;;;;;;;;;;5112351;28;20200;-72
2021/07/20 03:52:19;;;;;;;0.00;0.00;;;;;;;;;;5113707;27;20449;-72
2021/07/20 03:54:45;;;;;;;0.00;0.00;;;;;;;;;;5124739;28;20201;-73
2021/07/20 03:57:15;;;;;;;0.00;0.00;;;;;;;;;;5121619;28;20378;-73
2021/07/20 03:59:42;;;;;;;0.10;0.10;;;;;;;;;;5108344;28;20223;-72
2021/07/20 04:02:09;;;;;;;0.10;0.10;;;;;;;;;;5105491;28;20213;-69
2021/07/20 04:04:36;;;;;;;0.00;0.00;;;;;;;;;;5106328;28;20293;-72
2021/07/20 04:07:05;;;;;;;0.00;0.00;;;;;;;;;;5118147;28;20277;-72
2021/07/20 04:09:32;;;;;;;0.10;0.10;;;;;;;;;;5119869;28;20376;-70
2021/07/20 04:11:58;;;;;;;0.00;0.00;;;;;;;;;;5119143;27;20200;-72
2021/07/20 04:14:26;;;;;;;0.00;0.00;;;;;;;;;;5122210;28;20205;-72
2021/07/20 04:16:52;;;;;;;0.10;0.10;;;;;;;;;;5121250;28;20267;-72
2021/07/20 04:19:19;;;;;;;0.00;0.00;;;;;;;;;;5105231;28;20269;-73
2021/07/20 04:21:45;;;;;;;0.00;0.00;;;;;;;;;;5119258;28;21547;-74
2021/07/20 04:24:12;;;;;;;0.10;0.10;;;;;;;;;;5114153;28;20200;-72
2021/07/20 04:26:40;;;;;;;0.00;0.00;;;;;;;;;;5110162;28;20217;-72
2021/07/20 04:29:07;;;;;;;0.10;0.10;;;;;;;;;;5118850;28;20240;-72
2021/07/20 04:31:34;;;;;;;0.00;0.00;;;;;;;;;;5125846;28;20482;-73
2021/07/20 04:34:01;;;;;;;0.00;0.00;;;;;;;;;;5125704;28;20224;-73
2021/07/20 04:36:28;;;;;;;0.00;0.00;;;;;;;;;;5125385;28;20211;-73
2021/07/20 04:38:54;;;;;;;0.00;0.00;;;;;;;;;;5121298;28;20212;-73
2021/07/20 04:41:20;;;;;;;0.00;0.00;;;;;;;;;;5105108;28;20297;-74
2021/07/20 04:43:47;;;;;;;0.00;0.00;;;;;;;;;;5108138;28;20232;-74
2021/07/20 04:46:14;;;;;;;0.03;0.03;;;;;;;;;;5121505;28;20199;-74
2021/07/20 04:48:42;;;;;;;0.00;0.00;;;;;;;;;;5125202;28;20488;-74
2021/07/20 04:51:08;;;;;;;0.10;0.10;;;;;;;;;;5108003;28;21324;-73
2021/07/20 04:53:35;;;;;;;0.00;0.00;;;;;;;;;;5104797;28;20205;-73
2021/07/20 04:56:01;;;;;;;0.00;0.00;;;;;;;;;;5104516;28;20492;-73
2021/07/20 04:58:28;;;;;;;0.00;0.00;;;;;;;;;;5104282;28;20235;-74
2021/07/20 05:00:55;;;;;;;0.00;0.00;;;;;;;;;;5115470;28;20224;-72
2021/07/20 05:03:22;;;;;;;0.00;0.00;;;;;;;;;;5110479;28;20244;-72
2021/07/20 05:05:49;;;;;;;0.00;0.00;;;;;;;;;;5112910;28;20226;-72
2021/07/20 05:08:17;;;;;;;0.00;0.00;;;;;;;;;;5108178;28;20391;-73
2021/07/20 05:10:46;;;;;;;0.00;0.00;;;;;;;;;;5124685;28;20245;-72
2021/07/20 05:13:15;;;;;;;0.08;0.08;;;;;;;;;;5110234;28;20259;-73
2021/07/20 05:15:41;;;;;;;0.05;0.05;;;;;;;;;;5120679;28;20251;-72
2021/07/20 05:18:07;;;;;;;0.00;0.00;;;;;;;;;;5110885;28;20246;-69
2021/07/20 05:20:34;;;;;;;0.00;0.00;;;;;;;;;;5111197;28;20233;-72
2021/07/20 05:23:02;;;;;;;0.10;0.10;;;;;;;;;;5111174;28;20247;-71
2021/07/20 05:25:28;;;;;;;0.08;0.08;;;;;;;;;;5123752;28;20230;-71
2021/07/20 05:27:56;;;;;;;0.10;0.10;;;;;;;;;;5112648;28;20512;-72
2021/07/20 05:30:22;;;;;;;0.00;0.00;;;;;;;;;;5118652;28;20244;-73
2021/07/20 05:32:49;;;;;;;0.00;0.00;;;;;;;;;;5105934;28;20204;-72
2021/07/20 05:35:17;;;;;;;0.10;0.10;;;;;;;;;;5103538;28;20272;-73
2021/07/20 05:37:44;;;;;;;0.10;0.10;;;;;;;;;;5103828;28;20263;-73
2021/07/20 05:40:14;;;;;;;0.00;0.00;;;;;;;;;;5117695;28;20257;-70
2021/07/20 05:42:41;;;;;;;0.00;0.00;;;;;;;;;;5107678;28;20507;-72
2021/07/20 05:45:08;;;;;;;0.00;0.00;;;;;;;;;;5103779;28;20513;-71
2021/07/20 05:47:35;;;;;;;0.00;0.00;;;;;;;;;;5106621;28;20200;-73
2021/07/20 05:50:01;;;;;;;0.00;0.00;;;;;;;;;;5104395;28;20235;-71
2021/07/20 05:52:28;;;;;;;0.00;0.00;;;;;;;;;;5108679;28;20246;-72
2021/07/20 05:54:55;;;;;;;0.10;0.10;;;;;;;;;;5110026;28;20248;-73
2021/07/20 05:57:24;;;;;;;0.00;0.00;;;;;;;;;;5108598;28;20246;-71
2021/07/20 05:59:51;;;;;;;0.00;0.00;;;;;;;;;;5105222;28;20224;-72
2021/07/20 06:02:17;;;;;;;0.00;0.00;;;;;;;;;;5104038;28;20222;-72
2021/07/20 06:04:44;;;;;;;0.00;0.00;;;;;;;;;;5102569;28;20212;-73
2021/07/20 06:07:10;;;;;;;0.03;0.03;;;;;;;;;;5113983;28;20200;-71
2021/07/20 06:09:37;;;;;;;0.10;0.10;;;;;;;;;;5105551;28;20209;-74
2021/07/20 06:12:04;;;;;;;0.10;0.10;;;;;;;;;;5110464;28;20207;-73
2021/07/20 06:14:32;;;;;;;0.05;0.05;;;;;;;;;;5107173;28;20247;-73
2021/07/20 06:16:58;;;;;;;0.03;0.03;;;;;;;;;;5106643;28;20206;-73
2021/07/20 06:19:26;;;;;;;0.00;0.00;;;;;;;;;;5111760;28;20231;-71
2021/07/20 06:21:54;;;;;;;0.00;0.00;;;;;;;;;;5108559;28;20225;-72
2021/07/20 06:24:21;;;;;;;0.00;0.00;;;;;;;;;;5112646;28;20201;-72
2021/07/20 06:26:47;;;;;;;0.00;0.00;;;;;;;;;;5118116;28;20357;-72
2021/07/20 06:29:13;;;;;;;0.00;0.00;;;;;;;;;;5122173;28;20202;-76
2021/07/20 06:31:42;;;;;;;0.10;0.10;;;;;;;;;;5117510;28;20354;-72
2021/07/20 06:34:08;;;;;;;0.10;0.10;;;;;;;;;;5113136;28;20280;-73
2021/07/20 06:36:35;;;;;;;0.00;0.00;;;;;;;;;;5106436;28;20267;-72
2021/07/20 06:39:01;;;;;;;0.10;0.10;;;;;;;;;;5117389;28;20222;-71
2021/07/20 06:41:27;;;;;;;0.00;0.00;;;;;;;;;;5115667;28;20251;-73
2021/07/20 06:43:54;;;;;;;0.00;0.00;;;;;;;;;;5116363;28;20488;-73
2021/07/20 06:46:22;;;;;;;0.00;0.00;;;;;;;;;;5123088;28;20209;-72
2021/07/20 06:48:50;;;;;;;0.00;0.00;;;;;;;;;;5111371;28;20227;-72
2021/07/20 06:51:16;;;;;;;0.00;0.00;;;;;;;;;;5102987;28;20202;-72
2021/07/20 06:53:42;;;;;;;0.00;0.00;;;;;;;;;;5103140;28;20526;-72
2021/07/20 06:56:13;;;;;;;0.08;0.08;;;;;;;;;;5102768;28;20204;-72
2021/07/20 06:58:41;;;;;;;0.00;0.00;;;;;;;;;;5110487;28;20205;-71
2021/07/20 07:01:07;;;;;;;0.00;0.00;;;;;;;;;;5106709;28;20229;-73
2021/07/20 07:03:37;;;;;;;0.00;0.00;;;;;;;;;;5107121;28;20365;-72
2021/07/20 07:06:05;;;;;;;0.00;0.00;;;;;;;;;;5120715;28;20204;-73
2021/07/20 07:08:32;;;;;;;0.10;0.10;;;;;;;;;;5118977;28;20500;-76
2021/07/20 07:10:59;;;;;;;0.03;0.03;;;;;;;;;;5106761;28;20250;-73
2021/07/20 07:13:26;;;;;;;0.00;0.00;;;;;;;;;;5106540;28;20203;-72
2021/07/20 07:15:54;;;;;;;0.00;0.00;;;;;;;;;;5106764;28;20496;-72
2021/07/20 07:18:21;;;;;;;0.00;0.00;;;;;;;;;;5117916;28;20594;-71
2021/07/20 07:20:50;;;;;;;0.00;0.00;;;;;;;;;;5118058;28;20220;-74
2021/07/20 07:23:18;;;;;;;0.00;0.00;;;;;;;;;;5117197;28;20202;-73
2021/07/20 07:25:47;;;;;;;0.10;0.10;;;;;;;;;;5114199;28;20209;-74
2021/07/20 07:28:14;;;;;;;0.00;0.00;;;;;;;;;;5127064;28;20238;-71
2021/07/20 07:30:42;;;;;;;0.00;0.00;;;;;;;;;;5105988;28;20392;-71
2021/07/20 07:33:09;;;;;;;0.00;0.00;;;;;;;;;;5106253;28;20205;-72
2021/07/20 07:35:35;;;;;;;0.00;0.00;;;;;;;;;;5105724;28;20208;-72
2021/07/20 07:38:02;;;;;;;0.00;0.00;;;;;;;;;;5119477;28;20383;-71
2021/07/20 07:40:30;;;;;;;0.00;0.00;;;;;;;;;;5115152;28;20270;-74
2021/07/20 07:42:58;;;;;;;0.10;0.10;;;;;;;;;;5110932;28;20399;-71
2021/07/20 07:45:25;;;;;;;0.00;0.00;;;;;;;;;;5110779;28;20204;-73
2021/07/20 07:47:52;;;;;;;0.00;0.00;;;;;;;;;;5115069;28;20248;-72
2021/07/20 07:50:19;;;;;;;0.00;0.00;;;;;;;;;;5107195;28;20473;-73
2021/07/20 07:52:45;;;;;;;0.10;0.10;;;;;;;;;;5106116;28;20232;-72
2021/07/20 07:55:12;;;;;;;0.00;0.00;;;;;;;;;;5113204;28;20205;-70
2021/07/20 07:57:40;;;;;;;0.00;0.00;;;;;;;;;;5107988;28;20247;-72
2021/07/20 08:00:07;;;;;;;0.10;0.10;;;;;;;;;;5105922;28;20255;-71
2021/07/20 08:02:35;;;;;;;0.10;0.10;;;;;;;;;;5105394;28;20401;-72
2021/07/20 08:05:02;;;;;;;0.10;0.10;;;;;;;;;;5110443;28;20245;-71
2021/07/20 08:07:28;;;;;;;0.00;0.00;;;;;;;;;;5112308;28;20206;-72
2021/07/20 08:09:55;;;;;;;0.00;0.00;;;;;;;;;;5113194;28;20292;-70
2021/07/20 08:12:22;;;;;;;0.00;0.00;;;;;;;;;;5107260;28;20202;-73
2021/07/20 08:14:49;;;;;;;0.10;0.10;;;;;;;;;;5107855;28;20206;-73
2021/07/20 08:17:16;;;;;;;0.00;0.00;;;;;;;;;;5111069;28;20557;-73
2021/07/20 08:19:44;;;;;;;0.10;0.10;;;;;;;;;;5107576;28;20272;-72
2021/07/20 08:22:13;;;;;;;0.00;0.00;;;;;;;;;;5110971;28;20261;-73
2021/07/20 08:24:42;;;;;;;0.10;0.10;;;;;;;;;;5105328;28;20295;-74
2021/07/20 08:27:20;;;;;;;0.08;0.08;;;;;;;;;;5109576;28;20215;-71
2021/07/20 08:29:49;;;;;;;0.10;0.10;;;;;;;;;;5111189;28;20209;-72
2021/07/20 08:32:19;;;;;;;0.00;0.00;;;;;;;;;;5105719;28;20264;-73
2021/07/20 08:34:47;;;;;;;0.00;0.00;;;;;;;;;;5122643;28;20254;-71
2021/07/20 08:37:14;;;;;;;0.00;0.00;;;;;;;;;;5120617;28;20271;-72
2021/07/20 08:39:41;;;;;;;0.03;0.03;;;;;;;;;;5104687;28;20206;-73
2021/07/20 08:42:13;;;;;;;0.00;0.00;;;;;;;;;;5111819;28;20311;-71
2021/07/20 08:44:46;;;;;;;0.08;0.08;;;;;;;;;;5104866;28;20202;-71
2021/07/20 08:47:15;;;;;;;0.00;0.00;;;;;;;;;;5105402;28;20224;-71
2021/07/20 08:49:58;;;;;;;0.00;0.00;;;;;;;;;;5119706;28;20233;-71
2021/07/20 08:52:28;;;;;;;0.08;0.08;;;;;;;;;;5105120;28;20198;-74
2021/07/20 08:54:56;;;;;;;0.03;0.03;;;;;;;;;;5124861;28;20197;-73
2021/07/20 08:57:37;;;;;;;0.00;0.00;;;;;;;;;;5112969;28;20455;-74
2021/07/20 09:00:08;;;;;;;0.10;0.10;;;;;;;;;;5105780;28;20198;-73
2021/07/20 09:02:36;;;;;;;0.03;0.03;;;;;;;;;;5114952;28;20225;-73
2021/07/20 09:05:10;;;;;;;0.00;0.00;;;;;;;;;;5114094;28;20409;-69
2021/07/20 09:07:39;;;;;;;0.05;0.05;;;;;;;;;;5109045;28;20271;-70
2021/07/20 09:10:08;;;;;;;0.00;0.00;;;;;;;;;;5106697;28;20505;-71
2021/07/20 09:12:37;;;;;;;0.00;0.00;;;;;;;;;;5110870;28;20206;-71
2021/07/20 09:15:06;;;;;;;0.00;0.00;;;;;;;;;;5120801;28;20280;-74
2021/07/20 09:17:34;;;;;;;1.08;1.08;;;;;;;;;;5118077;28;20263;-70
2021/07/20 09:20:05;;;;;;;0.28;0.28;;;;;;;;;;5116569;28;20222;-68
2021/07/20 09:22:35;;;;;;;0.00;0.00;;;;;;;;;;5105308;28;20207;-70
2021/07/20 09:25:06;;;;;;;0.00;0.00;;;;;;;;;;5118046;28;20207;-70
2021/07/20 09:27:37;;;;;;;0.00;0.00;;;;;;;;;;5122421;28;20261;-72
2021/07/20 09:30:05;;;;;;;0.10;0.10;;;;;;;;;;5116990;28;20306;-70
2021/07/20 09:32:39;;;;;;;0.00;0.00;;;;;;;;;;5104905;28;20442;-71
2021/07/20 09:35:09;;;;;;;0.00;0.00;;;;;;;;;;5107598;28;20208;-70
2021/07/20 09:37:40;;;;;;;0.00;0.00;;;;;;;;;;5126573;28;20246;-72
2021/07/20 09:40:18;;;;;;;0.00;0.00;;;;;;;;;;5124031;28;20214;-71
2021/07/20 09:42:45;;;;;;;0.00;0.00;;;;;;;;;;5118675;28;20285;-71
2021/07/20 09:45:13;;;;;;;0.00;0.00;;;;;;;;;;5110547;28;20282;-70
2021/07/20 09:47:53;;;;;;;0.00;0.00;;;;;;;;;;5114850;28;20203;-70
2021/07/20 09:50:20;;;;;;;0.00;0.00;;;;;;;;;;5118623;28;20234;-70
2021/07/20 09:53:05;;;;;;;0.00;0.00;;;;;;;;;;5110587;28;20322;-71
2021/07/20 09:55:39;;;;;;;0.03;0.03;;;;;;;;;;5119385;28;20211;-71
2021/07/20 09:58:09;;;;;;;0.00;0.00;;;;;;;;;;5118203;28;20489;-70
2021/07/20 10:00:38;;;;;;;0.00;0.00;;;;;;;;;;5104632;28;20402;-71
2021/07/20 10:03:08;;;;;;;0.57;0.57;;;;;;;;;;5107475;28;20225;-69
2021/07/20 10:05:43;;;;;;;0.00;0.00;;;;;;;;;;5109835;28;20246;-71
2021/07/20 10:08:15;;;;;;;0.00;0.00;;;;;;;;;;5106383;28;20437;-74
2021/07/20 10:10:45;;;;;;;0.10;0.10;;;;;;;;;;5113835;28;20246;-71
2021/07/20 10:13:15;;;;;;;0.00;0.00;;;;;;;;;;5110717;28;20218;-70
2021/07/20 10:15:52;;;;;;;0.10;0.10;;;;;;;;;;5112433;28;20444;-71
2021/07/20 10:18:22;;;;;;;0.00;0.00;;;;;;;;;;5115512;28;20442;-71
2021/07/20 10:20:51;;;;;;;0.00;0.00;;;;;;;;;;5122745;28;20257;-69
2021/07/20 10:23:19;;;;;;;0.00;0.00;;;;;;;;;;5110101;28;20234;-70
2021/07/20 10:25:49;;;;;;;0.00;0.00;;;;;;;;;;5123047;28;20225;-70
2021/07/20 10:28:18;;;;;;;0.00;0.00;;;;;;;;;;5110334;28;20201;-69
2021/07/20 10:30:49;;;;;;;0.00;0.00;;;;;;;;;;5116989;28;20221;-69
2021/07/20 10:33:19;;;;;;;0.00;0.00;;;;;;;;;;5113520;28;20198;-72
2021/07/20 10:35:50;;;;;;;0.00;0.00;;;;;;;;;;5118991;28;20202;-71
2021/07/20 10:38:19;;;;;;;0.00;0.00;;;;;;;;;;5122899;28;20201;-71
2021/07/20 10:40:46;;;;;;;0.00;0.00;;;;;;;;;;5115866;28;20228;-72
2021/07/20 10:43:19;;;;;;;0.00;0.00;;;;;;;;;;5114739;28;20220;-71
2021/07/20 10:45:46;;;;;;;0.32;0.32;;;;;;;;;;5121880;28;20208;-71
2021/07/20 10:48:15;;;;;;;1.70;1.10;;;;;;;;;;5123415;28;20211;-71
2021/07/20 10:50:43;;;;;;;0.00;0.00;;;;;;;;;;5120883;28;20208;-72
2021/07/20 10:53:13;;;;;;;0.10;0.10;;;;;;;;;;5109551;28;20220;-71
2021/07/20 10:55:43;;;;;;;0.00;0.00;;;;;;;;;;5119169;28;20222;-71
2021/07/20 10:58:26;;;;;;;0.00;0.00;;;;;;;;;;5113243;28;20206;-74
2021/07/20 11:00:56;;;;;;;0.00;0.00;;;;;;;;;;5116154;27;20235;-72
2021/07/20 11:03:28;;;;;;;0.57;0.57;;;;;;;;;;5111745;28;20567;-72
2021/07/20 11:05:55;;;;;;;0.00;0.00;;;;;;;;;;5116062;28;20196;-73
2021/07/20 11:08:22;;;;;;;0.00;0.00;;;;;;;;;;5111908;28;20200;-75
2021/07/20 11:10:49;;;;;;;0.00;0.00;;;;;;;;;;5112165;28;20447;-72
2021/07/20 11:13:18;;;;;;;0.00;0.00;;;;;;;;;;5110345;28;20214;-73
2021/07/20 11:15:53;;;;;;;0.00;0.00;;;;;;;;;;5112757;28;20205;-72
2021/07/20 11:18:20;;;;;;;0.10;0.10;;;;;;;;;;5110857;28;20238;-70
2021/07/20 11:20:46;;;;;;;0.03;0.03;;;;;;;;;;5123032;27;20379;-71
2021/07/20 11:23:13;;;;;;;0.00;0.00;;;;;;;;;;5124595;28;20235;-71
2021/07/20 11:25:40;;;;;;;0.10;0.10;;;;;;;;;;5120748;28;20445;-71
2021/07/20 11:28:07;;;;;;;0.05;0.05;;;;;;;;;;5120242;28;20259;-69
2021/07/20 11:30:35;;;;;;;0.00;0.00;;;;;;;;;;5121705;28;20207;-70
2021/07/20 11:33:05;;;;;;;0.00;0.00;;;;;;;;;;5114959;28;20237;-69
2021/07/20 11:35:36;;;;;;;0.00;0.00;;;;;;;;;;5121091;28;20286;-71
2021/07/20 11:38:05;;;;;;;0.00;0.00;;;;;;;;;;5118308;28;20196;-70
2021/07/20 11:40:36;;;;;;;0.00;0.00;;;;;;;;;;5126161;28;20201;-69
2021/07/20 11:43:05;;;;;;;0.00;0.00;;;;;;;;;;5127054;28;20254;-73
2021/07/20 11:45:34;;;;;;;0.00;0.00;;;;;;;;;;5126301;28;20203;-74
2021/07/20 11:48:06;;;;;;;0.00;0.00;;;;;;;;;;5126290;28;20277;-72
2021/07/20 11:50:36;;;;;;;0.05;0.05;;;;;;;;;;5114943;28;20223;-72
2021/07/20 11:53:05;;;;;;;0.22;0.22;;;;;;;;;;5114247;28;20200;-73
2021/07/20 11:55:35;;;;;;;0.08;0.08;;;;;;;;;;5114186;28;20216;-71
2021/07/20 11:58:20;;;;;;;0.00;0.00;;;;;;;;;;5126008;28;20245;-73
2021/07/20 12:01:01;;;;;;;0.08;0.08;;;;;;;;;;5114235;27;20205;-75
2021/07/20 12:03:31;;;;;;;0.00;0.00;;;;;;;;;;5116532;28;20251;-74
2021/07/20 12:06:18;;;;;;;0.00;0.00;;;;;;;;;;5113197;28;20274;-73
2021/07/20 12:08:59;;;;;;;0.00;0.00;;;;;;;;;;5114149;28;20212;-73
2021/07/20 12:11:26;;;;;;;0.00;0.00;;;;;;;;;;5124625;28;20205;-72
2021/07/20 12:13:59;;;;;;;0.00;0.00;;;;;;;;;;5120622;27;20384;-74
2021/07/20 12:16:25;;;;;;;0.00;0.00;;;;;;;;;;5122516;27;20389;-75
2021/07/20 12:18:54;;;;;;;0.00;0.00;;;;;;;;;;5111580;27;20528;-74
2021/07/20 12:21:21;;;;;;;0.00;0.00;;;;;;;;;;5114438;28;20198;-73
2021/07/20 12:23:51;;;;;;;0.00;0.00;;;;;;;;;;5112735;28;20675;-73
2021/07/20 12:26:18;;;;;;;0.00;0.00;;;;;;;;;;5117646;28;20240;-74
2021/07/20 12:28:44;;;;;;;0.00;0.00;;;;;;;;;;5125239;28;20205;-72
2021/07/20 12:31:12;;;;;;;0.05;0.05;;;;;;;;;;5118671;27;20509;-74
2021/07/20 12:33:40;;;;;;;0.00;0.00;;;;;;;;;;5108715;28;20198;-74
2021/07/20 12:36:08;;;;;;;0.00;0.00;;;;;;;;;;5120905;28;20243;-74
2021/07/20 12:38:34;;;;;;;0.10;0.10;;;;;;;;;;5120369;28;20201;-72
2021/07/20 12:41:08;;;;;;;0.00;0.00;;;;;;;;;;5122665;28;20239;-74
2021/07/20 12:43:34;;;;;;;0.00;0.00;;;;;;;;;;5118160;28;20229;-73
2021/07/20 12:46:09;;;;;;;0.10;0.10;;;;;;;;;;5109359;28;20212;-77
2021/07/20 12:48:35;;;;;;;0.00;0.00;;;;;;;;;;5116068;28;20202;-78
2021/07/20 12:51:10;;;;;;;0.00;0.00;;;;;;;;;;5112348;28;20225;-77
2021/07/20 12:53:38;;;;;;;0.10;0.10;;;;;;;;;;5122748;28;20203;-77
2021/07/20 12:56:04;;;;;;;0.30;0.30;;;;;;;;;;5114014;28;20255;-74
2021/07/20 12:58:31;;;;;;;0.00;0.00;;;;;;;;;;5121356;28;21047;-77
2021/07/20 13:00:59;;;;;;;0.00;0.00;;;;;;;;;;5122605;28;20479;-78
2021/07/20 13:03:26;;;;;;;0.00;0.00;;;;;;;;;;5125634;28;20233;-75
2021/07/20 13:05:54;;;;;;;0.00;0.00;;;;;;;;;;5113240;28;20248;-76
2021/07/20 13:08:21;;;;;;;0.00;0.00;;;;;;;;;;5121372;28;20255;-78
2021/07/20 13:10:49;;;;;;;0.10;0.10;;;;;;;;;;5125237;28;20210;-75
2021/07/20 13:13:15;;;;;;;0.52;0.52;;;;;;;;;;5108578;28;20356;-74
2021/07/20 13:15:46;;;;;;;0.00;0.00;;;;;;;;;;5123933;27;20390;-73
2021/07/20 13:18:13;;;;;;;0.10;0.10;;;;;;;;;;5124613;28;20222;-70
2021/07/20 13:20:39;;;;;;;0.20;0.20;;;;;;;;;;5115260;28;20206;-73
2021/07/20 13:23:05;;;;;;;0.00;0.00;;;;;;;;;;5120022;28;20221;-72
2021/07/20 13:25:33;;;;;;;0.10;0.10;;;;;;;;;;5124147;28;20194;-72
2021/07/20 13:27:59;;;;;;;0.03;0.03;;;;;;;;;;5117680;28;20422;-74
2021/07/20 13:30:27;;;;;;;0.05;0.05;;;;;;;;;;5105367;28;20202;-69
2021/07/20 13:32:54;;;;;;;0.00;0.00;;;;;;;;;;5120753;28;20242;-72
2021/07/20 13:35:21;;;;;;;0.10;0.10;;;;;;;;;;5110651;28;20205;-71
2021/07/20 13:37:48;;;;;;;0.10;0.10;;;;;;;;;;5114651;28;20554;-71
2021/07/20 13:40:15;;;;;;;0.10;0.10;;;;;;;;;;5125680;28;20309;-72
2021/07/20 13:42:43;;;;;;;0.00;0.00;;;;;;;;;;5115859;28;20214;-68
2021/07/20 13:45:10;;;;;;;0.10;0.10;;;;;;;;;;5114735;28;20246;-68
2021/07/20 13:47:41;;;;;;;0.00;0.00;;;;;;;;;;5123122;28;20213;-69
2021/07/20 13:50:09;;;;;;;0.00;0.00;;;;;;;;;;5116804;28;20202;-71
2021/07/20 13:52:35;;;;;;;0.10;0.10;;;;;;;;;;5119615;28;20405;-68
2021/07/20 13:55:04;;;;;;;0.05;0.05;;;;;;;;;;5123901;28;20198;-69
2021/07/20 13:57:32;;;;;;;0.00;0.00;;;;;;;;;;5128862;28;20497;-71
2021/07/20 14:00:00;;;;;;;0.00;0.00;;;;;;;;;;5113044;27;20207;-70
2021/07/20 14:02:27;;;;;;;0.10;0.10;;;;;;;;;;5105797;28;20228;-70
2021/07/20 14:04:55;;;;;;;0.55;0.47;;;;;;;;;;5120513;28;20251;-65
2021/07/20 14:07:22;;;;;;;0.00;0.00;;;;;;;;;;5103464;28;20243;-66
2021/07/20 14:09:50;;;;;;;0.00;0.00;;;;;;;;;;5118948;28;20205;-66
2021/07/20 14:12:18;;;;;;;0.00;0.00;;;;;;;;;;5116353;28;20218;-66
2021/07/20 14:14:44;;;;;;;0.00;0.00;;;;;;;;;;5110874;28;20381;-66
2021/07/20 14:17:12;;;;;;;0.10;0.10;;;;;;;;;;5123343;28;20205;-67
2021/07/20 14:19:39;;;;;;;0.00;0.00;;;;;;;;;;5118791;28;20283;-72
2021/07/20 14:22:06;;;;;;;0.00;0.00;;;;;;;;;;5115445;28;20385;-71
2021/07/20 14:24:32;;;;;;;0.10;0.10;;;;;;;;;;5112973;28;20444;-73
2021/07/20 14:26:59;;;;;;;0.00;0.00;;;;;;;;;;5114546;28;20278;-71
2021/07/20 14:29:27;;;;;;;0.00;0.00;;;;;;;;;;5119199;28;20276;-72
2021/07/20 14:31:55;;;;;;;0.00;0.00;;;;;;;;;;5103601;28;20324;-71
2021/07/20 14:34:22;;;;;;;0.00;0.00;;;;;;;;;;5117099;28;20220;-71
2021/07/20 14:36:49;;;;;;;0.00;0.00;;;;;;;;;;5121698;28;20239;-72
2021/07/20 14:39:29;;;;;;;0.00;0.00;;;;;;;;;;5111624;28;20203;-72
2021/07/20 14:42:03;;;;;;;0.00;0.00;;;;;;;;;;5103327;28;20240;-71
2021/07/20 14:44:29;;;;;;;0.10;0.10;;;;;;;;;;5118765;28;20214;-72
2021/07/20 14:46:55;;;;;;;0.00;0.00;;;;;;;;;;5114458;28;20225;-72
2021/07/20 14:49:23;;;;;;;0.00;0.00;;;;;;;;;;5119811;28;20259;-73
2021/07/20 14:51:52;;;;;;;0.00;0.00;;;;;;;;;;5117407;28;20230;-71